Marmora, Canada
Current Conditions -  °F | °C
As of 10:00 AM on Sunday 21 Dec 2014 (Local Time) from CYTR Reporting Station
Broken Clouds Broken Clouds  
Wind Chill: 25°   Ceiling: 9500
Heat Index: 25°   Visibility: 15mi
Dew Point: 19°   Wind: 3mph
Humidity: 80%   Direction: 50°NE
Pressure: 30.35"   Gusts: NA
Location:  44.48°N, 77.68°W
Report Text: CYTR 211500Z 05003KT 15SM BKN095 M04/M07 A3035 RMK AC6 SLP282
Loading
Personal Weather Stations






























Interactive Weather Map New forecast layout! Learn more

10-Day Weather Forecast

Advertisements
Track Severe Weather on mobile